createdAt,value
2019-03-30T00:00:01.122Z,54.71
2019-03-30T00:02:35.730Z,54.63
2019-03-30T00:05:09.473Z,54.63
2019-03-30T00:07:42.859Z,54.61
2019-03-30T00:10:16.452Z,54.60
2019-03-30T00:12:49.936Z,54.56
2019-03-30T00:15:23.495Z,54.73
2019-03-30T00:17:56.848Z,54.73
2019-03-30T00:20:30.311Z,54.68
2019-03-30T00:23:03.659Z,54.91
2019-03-30T00:25:37.034Z,55.01
2019-03-30T00:28:10.533Z,54.81
2019-03-30T00:30:44.367Z,54.75
2019-03-30T00:33:17.803Z,54.83
2019-03-30T00:35:51.343Z,54.75
2019-03-30T00:38:26.078Z,54.92
2019-03-30T00:41:00.120Z,54.95
2019-03-30T00:43:33.599Z,54.85
2019-03-30T00:46:07.505Z,54.95
2019-03-30T00:48:40.880Z,54.75
2019-03-30T00:51:14.286Z,54.75
2019-03-30T00:53:48.013Z,54.78
2019-03-30T00:56:21.510Z,54.80
2019-03-30T00:58:54.941Z,54.63
2019-03-30T01:01:28.353Z,54.84
2019-03-30T01:04:01.985Z,54.99
2019-03-30T01:06:35.399Z,54.88
2019-03-30T01:09:11.650Z,54.92
2019-03-30T01:11:45.074Z,55.05
2019-03-30T01:14:18.600Z,55.05
2019-03-30T01:16:52.054Z,54.88
2019-03-30T01:19:25.608Z,54.85
2019-03-30T01:21:59.019Z,54.78
2019-03-30T01:24:32.469Z,54.83
2019-03-30T01:27:06.293Z,54.76
2019-03-30T01:29:39.732Z,54.91
2019-03-30T01:32:13.306Z,54.83
2019-03-30T01:34:47.227Z,54.81
2019-03-30T01:37:20.717Z,54.89
2019-03-30T01:39:54.656Z,54.93
2019-03-30T01:42:28.070Z,54.76
2019-03-30T01:45:01.539Z,54.75
2019-03-30T01:47:35.054Z,54.75
2019-03-30T01:50:17.261Z,54.97
2019-03-30T01:52:44.782Z,55.00
2019-03-30T01:55:18.285Z,54.99
2019-03-30T01:57:51.782Z,54.93
2019-03-30T02:00:25.266Z,55.41
2019-03-30T02:02:58.719Z,55.41
2019-03-30T02:05:32.169Z,55.22
2019-03-30T02:08:05.555Z,55.18
2019-03-30T02:10:43.957Z,54.97
2019-03-30T02:13:17.635Z,54.97
2019-03-30T02:15:51.115Z,54.96
2019-03-30T02:18:24.569Z,54.88
2019-03-30T02:20:58.114Z,54.84
2019-03-30T02:23:31.593Z,54.80
2019-03-30T02:26:05.268Z,55.01
2019-03-30T02:28:38.714Z,55.11
2019-03-30T02:31:12.244Z,55.16
2019-03-30T02:33:45.652Z,55.16
2019-03-30T02:36:19.138Z,55.06
2019-03-30T02:38:53.009Z,55.01
2019-03-30T02:41:26.464Z,55.02
2019-03-30T02:43:59.840Z,54.90
2019-03-30T02:46:33.319Z,54.83
2019-03-30T02:49:06.745Z,54.84
2019-03-30T02:51:40.212Z,55.04
2019-03-30T02:54:13.657Z,55.09
2019-03-30T02:56:47.124Z,55.21
2019-03-30T02:59:20.577Z,55.34
2019-03-30T03:01:54.259Z,55.51
2019-03-30T03:04:27.722Z,55.50
2019-03-30T03:07:01.079Z,55.36
2019-03-30T03:09:34.607Z,55.27
2019-03-30T03:12:08.035Z,55.48
2019-03-30T03:14:41.466Z,55.39
2019-03-30T03:17:15.068Z,55.54
2019-03-30T03:19:48.507Z,55.63
2019-03-30T03:22:21.852Z,55.81
2019-03-30T03:24:55.428Z,56.00
2019-03-30T03:27:28.992Z,56.03
2019-03-30T03:30:02.599Z,56.01
2019-03-30T03:32:36.125Z,55.92
2019-03-30T03:35:09.708Z,55.76
2019-03-30T03:37:46.099Z,55.86
2019-03-30T03:40:18.283Z,56.13
2019-03-30T03:42:51.787Z,56.13
2019-03-30T03:45:25.289Z,56.08
2019-03-30T03:47:59.064Z,56.13
2019-03-30T03:50:46.169Z,56.07
2019-03-30T03:53:19.868Z,56.09
2019-03-30T03:55:54.234Z,55.99
2019-03-30T03:58:30.983Z,56.14
2019-03-30T04:01:05.640Z,56.19
2019-03-30T04:03:39.974Z,56.00
2019-03-30T04:06:13.701Z,55.99
2019-03-30T04:08:48.566Z,55.93
2019-03-30T04:11:23.549Z,55.89
2019-03-30T04:13:57.647Z,55.98
2019-03-30T04:16:31.095Z,55.91
2019-03-30T04:19:04.512Z,55.91
2019-03-30T04:21:44.350Z,55.95
2019-03-30T04:24:13.147Z,55.91
2019-03-30T04:26:46.623Z,55.93
2019-03-30T04:29:20.030Z,56.08
2019-03-30T04:31:53.508Z,56.10
2019-03-30T04:34:26.921Z,56.24
2019-03-30T04:37:00.392Z,56.42
2019-03-30T04:39:33.734Z,56.58
2019-03-30T04:42:07.251Z,56.28
2019-03-30T04:44:40.589Z,56.29
2019-03-30T04:47:14.040Z,56.45
2019-03-30T04:49:47.445Z,56.39
2019-03-30T04:52:20.953Z,56.36
2019-03-30T04:54:54.410Z,56.40
2019-03-30T04:57:27.940Z,56.73
2019-03-30T05:00:01.332Z,56.90
2019-03-30T05:02:34.702Z,56.93
2019-03-30T05:05:09.336Z,57.04
2019-03-30T05:07:42.803Z,56.94
2019-03-30T05:10:16.300Z,56.83
2019-03-30T05:12:49.716Z,56.83
2019-03-30T05:15:23.161Z,56.86
2019-03-30T05:17:56.646Z,56.72
2019-03-30T05:20:30.134Z,56.75
2019-03-30T05:23:03.590Z,56.86
2019-03-30T05:25:37.004Z,56.96
2019-03-30T05:28:10.562Z,56.90
2019-03-30T05:30:44.173Z,56.88
2019-03-30T05:33:17.632Z,56.79
2019-03-30T05:35:51.091Z,56.67
2019-03-30T05:38:24.569Z,56.65
2019-03-30T05:40:58.024Z,56.65
2019-03-30T05:43:31.389Z,56.37
2019-03-30T05:46:04.915Z,56.34
2019-03-30T05:48:38.359Z,56.27
2019-03-30T05:51:11.813Z,56.36
2019-03-30T05:53:45.239Z,56.33
2019-03-30T05:56:18.738Z,56.26
2019-03-30T05:58:52.229Z,56.32
2019-03-30T06:01:25.757Z,56.39
2019-03-30T06:03:59.171Z,56.37
2019-03-30T06:06:32.697Z,56.45
2019-03-30T06:09:06.882Z,56.51
2019-03-30T06:11:40.330Z,56.56
2019-03-30T06:14:13.781Z,56.42
2019-03-30T06:16:47.241Z,56.23
2019-03-30T06:19:20.823Z,56.23
2019-03-30T06:21:54.265Z,55.83
2019-03-30T06:24:27.774Z,55.72
2019-03-30T06:27:01.289Z,55.12
2019-03-30T06:29:34.627Z,54.46
2019-03-30T06:32:08.132Z,53.98
2019-03-30T06:34:41.588Z,53.59
2019-03-30T06:37:15.030Z,53.55
2019-03-30T06:39:48.739Z,53.71
2019-03-30T06:42:22.268Z,53.82
2019-03-30T06:44:55.772Z,53.80
2019-03-30T06:47:29.332Z,53.55
2019-03-30T06:50:03.575Z,53.22
2019-03-30T06:52:37.474Z,52.96
2019-03-30T06:55:10.917Z,52.86
2019-03-30T06:57:44.373Z,52.44
2019-03-30T07:00:20.979Z,52.33
2019-03-30T07:02:54.407Z,52.52
2019-03-30T07:05:27.941Z,51.96
2019-03-30T07:08:01.688Z,51.24
2019-03-30T07:10:38.304Z,50.71
2019-03-30T07:13:10.523Z,49.67
2019-03-30T07:15:48.045Z,49.52
2019-03-30T07:18:21.575Z,49.20
2019-03-30T07:20:55.051Z,48.57
2019-03-30T07:23:28.592Z,48.63
2019-03-30T07:26:01.997Z,48.82
2019-03-30T07:28:35.442Z,48.34
2019-03-30T07:31:08.996Z,47.34
2019-03-30T07:33:42.536Z,46.41
2019-03-30T07:36:15.959Z,47.19
2019-03-30T07:38:49.421Z,47.76
2019-03-30T07:41:22.862Z,47.71
2019-03-30T07:43:56.342Z,46.85
2019-03-30T07:46:29.774Z,46.09
2019-03-30T07:49:03.176Z,45.35
2019-03-30T07:51:36.755Z,45.21
2019-03-30T07:54:10.280Z,44.71
2019-03-30T07:56:43.769Z,45.03
2019-03-30T07:59:17.255Z,44.64
2019-03-30T08:01:50.771Z,44.65
2019-03-30T08:04:24.282Z,43.70
2019-03-30T08:06:57.884Z,42.53
2019-03-30T08:09:31.314Z,42.47
2019-03-30T08:12:05.186Z,42.51
2019-03-30T08:14:38.633Z,41.93
2019-03-30T08:17:12.091Z,41.61
2019-03-30T08:19:45.504Z,42.10
2019-03-30T08:22:18.925Z,41.45
2019-03-30T08:24:52.284Z,40.50
2019-03-30T08:27:25.733Z,39.10
2019-03-30T08:29:59.339Z,36.86
2019-03-30T08:32:32.908Z,32.33
2019-03-30T08:35:07.118Z,33.87
2019-03-30T08:37:40.563Z,34.03
2019-03-30T08:40:14.252Z,34.81
2019-03-30T08:42:47.727Z,34.50
2019-03-30T08:45:21.224Z,35.07
2019-03-30T08:47:54.669Z,33.69
2019-03-30T08:50:28.217Z,32.68
2019-03-30T08:53:01.791Z,33.45
2019-03-30T08:55:35.200Z,32.93
2019-03-30T08:58:09.383Z,32.05
2019-03-30T09:00:43.335Z,32.25
2019-03-30T09:03:16.837Z,31.57
2019-03-30T09:05:50.299Z,30.05
2019-03-30T09:08:23.785Z,30.73
2019-03-30T09:10:57.370Z,30.31
2019-03-30T09:13:30.915Z,30.77
2019-03-30T09:16:04.419Z,29.94
2019-03-30T09:18:38.050Z,28.14
2019-03-30T09:21:11.572Z,25.48
2019-03-30T09:23:45.116Z,24.08
2019-03-30T09:26:18.484Z,23.29
2019-03-30T09:28:51.942Z,21.52
2019-03-30T09:31:25.384Z,21.89
2019-03-30T09:33:58.902Z,22.34
2019-03-30T09:36:32.473Z,22.92
2019-03-30T09:39:08.683Z,21.22
2019-03-30T09:41:42.068Z,19.66
2019-03-30T09:44:15.524Z,19.66
2019-03-30T09:46:49.468Z,20.50
2019-03-30T09:49:22.876Z,18.91
2019-03-30T09:51:56.544Z,22.71
2019-03-30T09:54:30.249Z,22.84
2019-03-30T09:57:03.700Z,23.43
2019-03-30T09:59:37.151Z,22.66
2019-03-30T10:02:10.661Z,21.98
2019-03-30T10:04:44.085Z,20.99
2019-03-30T10:07:17.634Z,20.92
2019-03-30T10:09:51.138Z,21.25
2019-03-30T10:12:24.525Z,22.32
2019-03-30T10:14:57.957Z,22.21
2019-03-30T10:17:31.966Z,22.99
2019-03-30T10:20:09.441Z,22.22
2019-03-30T10:22:42.817Z,20.85
2019-03-30T10:25:16.377Z,19.50
2019-03-30T10:27:50.574Z,19.89
2019-03-30T10:30:24.399Z,20.04
2019-03-30T10:32:59.553Z,19.85
2019-03-30T10:35:33.056Z,20.83
2019-03-30T10:38:06.705Z,20.95
2019-03-30T10:40:41.265Z,21.28
2019-03-30T10:43:14.715Z,20.66
2019-03-30T10:45:48.061Z,19.84
2019-03-30T10:48:21.691Z,19.46
2019-03-30T10:50:55.620Z,17.67
2019-03-30T10:53:29.346Z,17.95
2019-03-30T10:56:02.786Z,18.45
2019-03-30T10:58:36.233Z,19.04
2019-03-30T11:01:10.193Z,19.46
2019-03-30T11:03:43.603Z,19.38
2019-03-30T11:06:17.092Z,20.08
2019-03-30T11:08:50.585Z,20.69
2019-03-30T11:11:24.112Z,20.58
2019-03-30T11:13:57.638Z,19.48
2019-03-30T11:16:31.296Z,20.05
2019-03-30T11:19:05.210Z,19.68
2019-03-30T11:21:38.739Z,18.55
2019-03-30T11:24:12.154Z,18.22
2019-03-30T11:26:45.633Z,19.07
2019-03-30T11:29:19.117Z,20.18
2019-03-30T11:31:52.562Z,20.58
2019-03-30T11:34:26.273Z,20.66
2019-03-30T11:36:59.868Z,20.05
2019-03-30T11:39:33.440Z,19.60
2019-03-30T11:42:06.927Z,20.47
2019-03-30T11:44:40.319Z,20.00
2019-03-30T11:47:13.836Z,21.06
2019-03-30T11:49:47.361Z,21.71
2019-03-30T11:52:20.824Z,20.63
2019-03-30T11:54:54.598Z,20.58
2019-03-30T11:57:28.214Z,20.36
2019-03-30T12:00:01.697Z,20.07
2019-03-30T12:02:35.285Z,21.08
2019-03-30T12:05:08.899Z,20.73
2019-03-30T12:07:42.361Z,20.73
2019-03-30T12:10:16.237Z,19.89
2019-03-30T12:12:49.844Z,18.50
2019-03-30T12:15:23.277Z,18.33
2019-03-30T12:17:56.704Z,18.69
2019-03-30T12:20:30.269Z,18.99
2019-03-30T12:23:03.738Z,19.28
2019-03-30T12:25:37.262Z,18.82
2019-03-30T12:28:10.897Z,20.74
2019-03-30T12:30:44.326Z,20.97
2019-03-30T12:33:17.882Z,21.72
2019-03-30T12:35:51.835Z,21.76
2019-03-30T12:38:25.299Z,23.06
2019-03-30T12:40:58.896Z,22.19
2019-03-30T12:43:32.432Z,19.96
2019-03-30T12:46:05.793Z,18.79
2019-03-30T12:48:39.634Z,19.75
2019-03-30T12:51:13.274Z,20.26
2019-03-30T12:53:50.515Z,20.89
2019-03-30T12:56:21.934Z,21.92
2019-03-30T12:58:55.548Z,21.60
2019-03-30T13:01:29.101Z,21.97
2019-03-30T13:04:02.541Z,21.03
2019-03-30T13:06:36.395Z,20.85
2019-03-30T13:09:09.847Z,21.46
2019-03-30T13:11:43.341Z,22.38
2019-03-30T13:14:17.024Z,23.40
2019-03-30T13:16:50.638Z,22.33
2019-03-30T13:19:24.025Z,22.17
2019-03-30T13:21:57.548Z,21.62
2019-03-30T13:24:31.019Z,20.54
2019-03-30T13:27:04.654Z,21.44
2019-03-30T13:29:38.196Z,22.39
2019-03-30T13:32:11.712Z,23.33
2019-03-30T13:34:45.683Z,23.93
2019-03-30T13:37:20.278Z,23.74
2019-03-30T13:39:53.752Z,24.20
2019-03-30T13:42:27.291Z,24.63
2019-03-30T13:45:03.587Z,23.83
2019-03-30T13:47:35.885Z,23.49
2019-03-30T13:50:09.673Z,23.79
2019-03-30T13:52:43.092Z,24.15
2019-03-30T13:55:16.531Z,24.12
2019-03-30T13:57:49.877Z,25.07
2019-03-30T14:00:23.324Z,24.78
2019-03-30T14:02:56.772Z,25.15
2019-03-30T14:05:30.311Z,25.03
2019-03-30T14:08:03.785Z,25.76
2019-03-30T14:10:39.217Z,25.74
2019-03-30T14:13:12.809Z,25.18
2019-03-30T14:15:46.284Z,25.75
2019-03-30T14:18:20.044Z,25.19
2019-03-30T14:20:53.499Z,25.42
2019-03-30T14:23:26.927Z,25.73
2019-03-30T14:26:00.307Z,25.61
2019-03-30T14:28:33.651Z,25.47
2019-03-30T14:31:07.099Z,25.28
2019-03-30T14:33:40.514Z,25.39
2019-03-30T14:36:14.081Z,25.74
2019-03-30T14:38:47.505Z,25.59
2019-03-30T14:41:20.898Z,25.72
2019-03-30T14:43:54.284Z,25.49
2019-03-30T14:46:27.745Z,26.36
2019-03-30T14:49:01.160Z,26.25
2019-03-30T14:51:34.680Z,26.16
2019-03-30T14:54:08.176Z,26.45
2019-03-30T14:56:46.036Z,26.84
2019-03-30T14:59:16.797Z,28.42
2019-03-30T15:01:50.240Z,27.12
2019-03-30T15:04:23.588Z,26.97
2019-03-30T15:06:57.111Z,27.61
2019-03-30T15:09:30.528Z,27.27
2019-03-30T15:12:04.068Z,26.38
2019-03-30T15:14:37.477Z,27.04
2019-03-30T15:17:10.924Z,26.87
2019-03-30T15:19:44.297Z,27.45
2019-03-30T15:22:17.715Z,26.74
2019-03-30T15:24:51.194Z,27.08
2019-03-30T15:27:24.551Z,27.60
2019-03-30T15:29:58.133Z,28.15
2019-03-30T15:32:31.632Z,27.71
2019-03-30T15:35:07.682Z,27.65
2019-03-30T15:37:41.103Z,28.54
2019-03-30T15:40:14.648Z,27.80
2019-03-30T15:42:47.982Z,28.16
2019-03-30T15:45:21.439Z,28.92
2019-03-30T15:47:54.871Z,28.42
2019-03-30T15:50:28.491Z,28.33
2019-03-30T15:53:01.900Z,28.09
2019-03-30T15:55:35.393Z,27.93
2019-03-30T15:58:08.812Z,28.45
2019-03-30T16:00:42.187Z,28.11
2019-03-30T16:03:15.741Z,28.12
2019-03-30T16:05:49.211Z,28.12
2019-03-30T16:08:23.163Z,28.11
2019-03-30T16:10:56.629Z,28.26
2019-03-30T16:13:30.115Z,28.92
2019-03-30T16:16:03.687Z,28.89
2019-03-30T16:18:37.116Z,28.43
2019-03-30T16:21:10.608Z,28.88
2019-03-30T16:23:44.016Z,29.19
2019-03-30T16:26:17.552Z,29.22
2019-03-30T16:28:51.196Z,28.77
2019-03-30T16:31:24.649Z,29.25
2019-03-30T16:33:58.076Z,29.79
2019-03-30T16:36:31.897Z,29.89
2019-03-30T16:39:09.587Z,29.93
2019-03-30T16:41:43.081Z,30.33
2019-03-30T16:44:16.566Z,29.53
2019-03-30T16:46:50.248Z,29.81
2019-03-30T16:49:23.594Z,29.68
2019-03-30T16:51:57.119Z,29.86
2019-03-30T16:54:31.180Z,29.44
2019-03-30T16:57:04.704Z,29.63
2019-03-30T16:59:38.138Z,30.24
2019-03-30T17:02:11.587Z,29.97
2019-03-30T17:04:45.017Z,29.84
2019-03-30T17:07:18.753Z,29.60
2019-03-30T17:09:52.308Z,30.10
2019-03-30T17:12:25.821Z,30.09
2019-03-30T17:14:59.178Z,30.28
2019-03-30T17:17:32.638Z,30.64
2019-03-30T17:20:07.942Z,31.23
2019-03-30T17:22:41.309Z,30.81
2019-03-30T17:25:14.774Z,30.91
2019-03-30T17:27:58.067Z,31.20
2019-03-30T17:30:23.944Z,31.34
2019-03-30T17:32:57.454Z,31.17
2019-03-30T17:35:30.928Z,31.34
2019-03-30T17:38:04.376Z,31.67
2019-03-30T17:40:37.865Z,31.73
2019-03-30T17:43:11.769Z,32.04
2019-03-30T17:45:45.869Z,31.97
2019-03-30T17:48:19.960Z,32.30
2019-03-30T17:50:53.937Z,32.44
2019-03-30T17:53:28.004Z,32.69
2019-03-30T17:56:02.216Z,32.84
2019-03-30T17:58:35.863Z,33.19
2019-03-30T18:01:09.353Z,33.60
2019-03-30T18:03:42.730Z,33.67
2019-03-30T18:06:16.136Z,34.02
2019-03-30T18:08:49.581Z,34.35
2019-03-30T18:11:23.019Z,34.52
2019-03-30T18:13:56.807Z,35.08
2019-03-30T18:16:30.592Z,35.14
2019-03-30T18:19:04.546Z,35.10
2019-03-30T18:21:38.407Z,35.42
2019-03-30T18:24:11.929Z,35.66
2019-03-30T18:26:45.367Z,35.40
2019-03-30T18:29:18.764Z,35.51
2019-03-30T18:31:52.257Z,35.86
2019-03-30T18:34:25.998Z,36.03
2019-03-30T18:36:59.490Z,36.59
2019-03-30T18:39:33.329Z,36.99
2019-03-30T18:42:06.823Z,37.36
2019-03-30T18:44:40.463Z,37.54
2019-03-30T18:47:13.940Z,37.52
2019-03-30T18:49:47.556Z,37.65
2019-03-30T18:52:20.997Z,37.58
2019-03-30T18:54:54.409Z,38.60
2019-03-30T18:57:27.825Z,38.63
2019-03-30T19:00:01.208Z,38.78
2019-03-30T19:02:34.680Z,38.76
2019-03-30T19:05:08.121Z,38.83
2019-03-30T19:07:41.584Z,39.24
2019-03-30T19:10:14.990Z,39.40
2019-03-30T19:12:48.365Z,39.55
2019-03-30T19:15:21.790Z,39.93
2019-03-30T19:17:55.180Z,40.27
2019-03-30T19:20:28.609Z,40.48
2019-03-30T19:23:02.077Z,40.74
2019-03-30T19:25:35.861Z,40.64
2019-03-30T19:28:09.299Z,41.01
2019-03-30T19:30:42.863Z,40.91
2019-03-30T19:33:16.573Z,40.64
2019-03-30T19:35:49.977Z,41.18
2019-03-30T19:38:23.350Z,41.36
2019-03-30T19:40:56.784Z,41.72
2019-03-30T19:43:30.315Z,41.85
2019-03-30T19:46:04.218Z,41.58
2019-03-30T19:48:38.542Z,41.73
2019-03-30T19:51:17.093Z,41.53
2019-03-30T19:53:59.972Z,41.28
2019-03-30T19:56:36.052Z,41.10
2019-03-30T19:59:14.004Z,41.00
2019-03-30T20:01:53.310Z,40.86
2019-03-30T20:04:30.495Z,40.75
2019-03-30T20:07:05.919Z,40.93
2019-03-30T20:09:39.875Z,41.17
2019-03-30T20:12:14.334Z,41.31
2019-03-30T20:14:51.801Z,41.30
2019-03-30T20:20:27.330Z,41.76
2019-03-30T20:23:06.073Z,41.83
2019-03-30T20:26:02.794Z,41.94
2019-03-30T20:28:57.856Z,42.27
2019-03-30T20:31:31.478Z,42.23
2019-03-30T20:34:05.489Z,42.16
2019-03-30T20:36:39.135Z,42.56
2019-03-30T20:39:14.732Z,42.57
2019-03-30T20:41:52.083Z,42.43
2019-03-30T20:44:37.096Z,42.36
2019-03-30T20:47:18.172Z,42.65
2019-03-30T20:50:02.210Z,42.58
2019-03-30T20:52:42.960Z,42.58
2019-03-30T20:55:26.485Z,42.56
2019-03-30T21:01:16.227Z,43.06
2019-03-30T21:04:00.047Z,43.09
2019-03-30T21:06:41.756Z,43.07
2019-03-30T21:09:15.190Z,43.36
2019-03-30T21:11:48.542Z,43.64
2019-03-30T21:14:22.401Z,43.97
2019-03-30T21:16:55.898Z,44.25
2019-03-30T21:19:29.447Z,44.59
2019-03-30T21:22:03.263Z,44.89
2019-03-30T21:24:36.719Z,44.99
2019-03-30T21:27:10.213Z,45.13
2019-03-30T21:29:54.550Z,45.15
2019-03-30T21:32:18.933Z,45.98
2019-03-30T21:34:52.520Z,45.93
2019-03-30T21:37:25.947Z,46.06
2019-03-30T21:39:59.430Z,45.89
2019-03-30T21:42:32.904Z,45.69
2019-03-30T21:45:07.841Z,45.68
2019-03-30T21:47:41.295Z,45.59
2019-03-30T21:50:14.979Z,45.43
2019-03-30T21:52:48.490Z,45.66
2019-03-30T21:55:22.080Z,45.55
2019-03-30T21:57:55.533Z,45.70
2019-03-30T22:00:36.959Z,45.74
2019-03-30T22:03:10.804Z,45.79
2019-03-30T22:05:44.329Z,45.87
2019-03-30T22:08:17.992Z,45.40
2019-03-30T22:10:51.473Z,45.30
2019-03-30T22:13:24.933Z,45.30
2019-03-30T22:15:58.597Z,45.13
2019-03-30T22:18:32.018Z,44.94
2019-03-30T22:21:05.651Z,44.58
2019-03-30T22:23:39.125Z,44.52
2019-03-30T22:26:12.584Z,44.36
2019-03-30T22:28:45.941Z,44.44
2019-03-30T22:31:19.391Z,44.47
2019-03-30T22:33:52.742Z,44.43
2019-03-30T22:36:26.289Z,44.45
2019-03-30T22:38:59.762Z,44.49
2019-03-30T22:41:33.147Z,44.58
2019-03-30T22:44:06.572Z,44.36
2019-03-30T22:46:40.045Z,44.48
2019-03-30T22:49:13.461Z,44.64
2019-03-30T22:51:46.938Z,44.65
2019-03-30T22:54:20.305Z,44.69
2019-03-30T22:56:53.752Z,44.81
2019-03-30T22:59:27.181Z,44.83
2019-03-30T23:02:00.726Z,44.79
2019-03-30T23:04:34.171Z,44.87
2019-03-30T23:07:07.637Z,44.91
2019-03-30T23:09:41.131Z,44.97
2019-03-30T23:12:14.514Z,45.21
2019-03-30T23:14:48.067Z,45.15
2019-03-30T23:17:21.559Z,45.57
2019-03-30T23:19:54.965Z,45.86
2019-03-30T23:22:28.422Z,45.76
2019-03-30T23:25:01.784Z,46.50
2019-03-30T23:27:35.178Z,46.48
2019-03-30T23:30:08.961Z,46.53
2019-03-30T23:32:42.490Z,46.52
2019-03-30T23:35:15.913Z,46.69
2019-03-30T23:37:49.307Z,46.93
2019-03-30T23:40:22.736Z,47.29
2019-03-30T23:42:56.114Z,47.19
2019-03-30T23:45:29.468Z,47.25
2019-03-30T23:48:02.911Z,47.38
2019-03-30T23:50:36.380Z,47.23
2019-03-30T23:53:09.880Z,47.42
2019-03-30T23:55:43.248Z,47.65
2019-03-30T23:58:16.723Z,47.54
